Time;durP1;ratioP1;P1;durP2;ratioP2;P2;SDS_P1;SDS_P2;PMS_P1;PMS_P2;Temp;Humidity;BMP_temperature;BMP_pressure;BME280_temperature;BME280_humidity;BME280_pressure;Samples;Min_cycle;Max_cycle;Signal;HPM_P1;HPM_P2
2022/05/08 00:00:51;;;;;;;0.40;0.15;;;;;;;16.47;42.55;101004.59;4990516;28;20551;-76
2022/05/08 00:03:19;;;;;;;0.93;0.20;;;;;;;16.42;41.27;101001.03;4989491;28;20058;-76
2022/05/08 00:05:48;;;;;;;0.30;0.20;;;;;;;16.38;41.66;101001.00;4990656;28;20092;-74
2022/05/08 00:08:16;;;;;;;0.98;0.20;;;;;;;16.32;40.86;101002.69;4990199;28;20105;-76
2022/05/08 00:10:45;;;;;;;1.05;0.20;;;;;;;16.24;41.31;100995.66;4990196;28;20096;-76
2022/05/08 00:13:15;;;;;;;0.47;0.20;;;;;;;16.13;43.20;100992.94;4989685;28;20726;-77
2022/05/08 00:15:44;;;;;;;0.63;0.40;;;;;;;16.06;44.50;100992.00;4990187;28;20066;-76
2022/05/08 00:18:12;;;;;;;0.70;0.25;;;;;;;15.92;41.85;100988.38;4990317;28;20058;-77
2022/05/08 00:20:41;;;;;;;2.00;0.45;;;;;;;15.93;43.26;100987.50;4990285;28;20503;-78
2022/05/08 00:23:09;;;;;;;1.15;0.50;;;;;;;15.83;42.95;100972.63;4988973;28;20120;-77
2022/05/08 00:25:37;;;;;;;1.98;0.45;;;;;;;15.91;43.82;100989.22;4989956;28;20074;-77
2022/05/08 00:28:06;;;;;;;0.65;0.22;;;;;;;15.75;41.66;100980.34;4990173;28;20057;-79
2022/05/08 00:30:37;;;;;;;0.82;0.30;;;;;;;15.59;44.07;100983.59;4989913;28;20459;-78
2022/05/08 00:33:06;;;;;;;0.28;0.20;;;;;;;15.51;43.65;100970.47;4989635;28;20514;-77
2022/05/08 00:35:34;;;;;;;1.40;0.20;;;;;;;15.56;42.08;100976.59;4982908;28;20069;-74
2022/05/08 00:38:03;;;;;;;0.63;0.20;;;;;;;15.55;41.96;100969.63;4970201;28;20571;-72
2022/05/08 00:40:35;;;;;;;1.35;0.20;;;;;;;15.51;42.82;100970.47;4969546;28;20042;-76
2022/05/08 00:43:32;;;;;;;1.13;0.43;;;;;;;15.40;43.09;100965.09;4969137;28;20062;-76
2022/05/08 00:46:04;;;;;;;1.25;0.50;;;;;;;15.15;43.94;100968.22;4971010;28;20153;-74
2022/05/08 00:48:33;;;;;;;1.27;0.30;;;;;;;15.08;44.30;100962.06;4970569;28;20043;-76
2022/05/08 00:51:03;;;;;;;1.15;0.50;;;;;;;14.90;44.06;100964.38;4970178;28;20050;-75
2022/05/08 00:53:35;;;;;;;0.40;0.20;;;;;;;14.72;44.24;100960.63;4971636;28;20110;-73
2022/05/08 00:56:05;;;;;;;0.68;0.47;;;;;;;14.59;44.93;100964.78;4969843;28;20082;-76
2022/05/08 00:58:36;;;;;;;0.50;0.28;;;;;;;14.54;45.13;100955.09;4970776;28;20043;-76
2022/05/08 01:01:06;;;;;;;0.70;0.22;;;;;;;14.37;46.90;100957.44;4969399;28;20093;-75
2022/05/08 01:03:35;;;;;;;0.80;0.20;;;;;;;14.21;47.34;100954.53;4969485;28;20081;-74
2022/05/08 01:06:06;;;;;;;1.98;0.38;;;;;;;14.13;47.58;100950.03;4970092;28;20472;-75
2022/05/08 01:08:36;;;;;;;1.65;0.38;;;;;;;14.08;48.55;100949.09;4969675;28;20047;-75
2022/05/08 01:11:06;;;;;;;0.50;0.20;;;;;;;14.05;49.72;100955.13;4970057;28;20051;-76
2022/05/08 01:13:35;;;;;;;2.13;0.30;;;;;;;13.84;49.04;100947.78;4969572;28;20381;-77
2022/05/08 01:16:08;;;;;;;1.40;0.43;;;;;;;13.71;49.98;100949.28;4970415;28;20106;-79
2022/05/08 01:18:37;;;;;;;1.27;0.43;;;;;;;13.61;50.33;100945.63;4969068;28;20047;-76
2022/05/08 01:21:09;;;;;;;1.25;0.30;;;;;;;13.41;50.33;100939.13;4969321;28;20283;-75
2022/05/08 01:23:39;;;;;;;0.90;0.38;;;;;;;13.26;50.91;100939.63;4969200;28;20095;-74
2022/05/08 01:26:08;;;;;;;0.55;0.20;;;;;;;13.12;51.37;100947.13;4969543;28;20108;-74
2022/05/08 01:28:37;;;;;;;0.90;0.20;;;;;;;12.96;51.35;100942.44;4969124;28;20047;-76
2022/05/08 01:31:06;;;;;;;0.82;0.30;;;;;;;12.81;52.20;100945.59;4969634;28;20046;-73
2022/05/08 01:33:34;;;;;;;0.45;0.20;;;;;;;12.71;52.83;100944.50;4970145;28;20148;-77
2022/05/08 01:36:03;;;;;;;1.35;0.40;;;;;;;12.58;52.99;100942.44;4963859;28;20102;-76
2022/05/08 01:38:31;;;;;;;1.98;0.20;;;;;;;12.50;53.53;100943.97;4950330;29;20071;-81
2022/05/08 01:41:04;;;;;;;0.32;0.20;;;;;;;12.36;54.74;100941.00;4952576;28;21119;-77
2022/05/08 01:43:34;;;;;;;0.43;0.30;;;;;;;12.22;55.07;100935.47;4953841;29;20493;-80
2022/05/08 01:46:03;;;;;;;0.68;0.30;;;;;;;12.15;56.09;100938.75;4935531;29;20056;-85
2022/05/08 01:48:30;;;;;;;6.13;0.50;;;;;;;12.07;56.77;100943.75;4933179;29;20051;-84
2022/05/08 01:51:00;;;;;;;0.30;0.10;;;;;;;11.95;55.61;100936.50;4933040;29;20103;-85
2022/05/08 01:53:33;;;;;;;0.50;0.30;;;;;;;11.88;56.62;100932.00;4939608;29;20047;-84
2022/05/08 01:56:07;;;;;;;1.85;0.43;;;;;;;11.80;57.71;100936.06;4952947;29;20062;-84
2022/05/08 01:58:35;;;;;;;3.10;0.80;;;;;;;11.76;59.46;100952.38;4954209;29;20102;-80
2022/05/08 02:01:06;;;;;;;0.75;0.20;;;;;;;11.62;61.41;100970.13;4950566;29;20125;-79
2022/05/08 02:03:35;;;;;;;1.85;0.25;;;;;;;11.43;64.77;100968.72;4950918;29;20146;-80
2022/05/08 02:06:04;;;;;;;3.75;0.40;;;;;;;11.25;65.89;100973.38;4950581;29;20055;-84
2022/05/08 02:08:32;;;;;;;0.80;0.30;;;;;;;11.06;67.71;100961.53;4949690;29;20055;-81
2022/05/08 02:11:03;;;;;;;3.05;0.30;;;;;;;10.90;68.54;100968.84;4949886;29;20106;-78
2022/05/08 02:13:31;;;;;;;2.22;0.20;;;;;;;10.78;71.08;100959.81;4949477;29;20132;-77
2022/05/08 02:16:00;;;;;;;0.20;0.20;;;;;;;10.71;71.47;100957.88;4950037;29;20087;-78
2022/05/08 02:18:28;;;;;;;1.25;0.20;;;;;;;10.61;73.04;100960.16;4949846;29;20549;-78
2022/05/08 02:20:56;;;;;;;0.28;0.15;;;;;;;10.52;73.06;100944.34;4950261;29;20082;-78
2022/05/08 02:23:25;;;;;;;0.63;0.30;;;;;;;10.50;74.65;100946.00;4949587;29;20055;-80
2022/05/08 02:25:53;;;;;;;1.92;0.35;;;;;;;10.42;75.33;100939.66;4949899;29;20106;-80
2022/05/08 02:28:23;;;;;;;1.65;0.28;;;;;;;10.41;75.88;100936.22;4951056;28;20063;-77
2022/05/08 02:30:52;;;;;;;0.30;0.20;;;;;;;10.39;75.38;100935.28;4952026;29;20087;-78
2022/05/08 02:33:21;;;;;;;0.32;0.17;;;;;;;10.35;75.59;100928.25;4960443;28;20068;-80
2022/05/08 02:35:50;;;;;;;0.30;0.20;;;;;;;10.30;75.46;100926.34;4972777;28;20520;-82
2022/05/08 02:38:19;;;;;;;0.52;0.17;;;;;;;10.24;77.42;100922.69;4976300;28;20050;-84
2022/05/08 02:40:47;;;;;;;0.30;0.22;;;;;;;10.22;77.97;100920.88;4974902;28;20128;-85
2022/05/08 02:43:18;;;;;;;1.13;0.40;;;;;;;10.18;79.08;100919.91;4972695;28;20054;-85
2022/05/08 02:45:48;;;;;;;1.52;0.30;;;;;;;10.16;79.95;100920.69;4973248;28;20276;-84
2022/05/08 02:48:17;;;;;;;0.77;0.20;;;;;;;10.07;79.02;100922.09;4972074;28;20065;-84
2022/05/08 02:50:45;;;;;;;2.53;0.60;;;;;;;10.03;80.04;100922.84;4972499;28;20042;-82
2022/05/08 02:53:13;;;;;;;1.83;0.47;;;;;;;10.01;79.78;100915.84;4972006;28;20445;-79
2022/05/08 02:58:36;;;;;;;1.23;0.28;;;;;;;9.94;85.76;100914.78;4972394;28;20061;-77
2022/05/08 03:01:06;;;;;;;0.40;0.30;;;;;;;9.91;89.35;100916.38;4972506;28;20059;-79
2022/05/08 03:03:35;;;;;;;1.95;0.47;;;;;;;9.81;89.76;100918.63;4971839;28;20701;-79
2022/05/08 03:06:04;;;;;;;1.85;0.40;;;;;;;9.74;93.93;100913.22;4972520;28;20572;-79
2022/05/08 03:08:32;;;;;;;1.90;0.40;;;;;;;9.65;97.58;100908.59;4972070;28;20137;-79
2022/05/08 03:13:46;;;;;;;0.38;0.20;;;;;;;9.61;99.51;100899.84;4953129;29;20210;-78
2022/05/08 03:16:17;;;;;;;0.10;0.10;;;;;;;9.60;100.00;100894.63;4953869;29;20051;-79
2022/05/08 03:18:46;;;;;;;0.20;0.20;;;;;;;9.54;100.00;100894.41;4955789;29;20059;-85
2022/05/08 03:21:16;;;;;;;0.38;0.15;;;;;;;9.52;100.00;100896.06;4952813;29;20074;-86
2022/05/08 03:23:46;;;;;;;1.60;0.20;;;;;;;9.47;100.00;100890.72;4953634;29;20137;-83
2022/05/08 03:26:14;;;;;;;1.00;0.30;;;;;;;9.44;100.00;100891.50;4952316;29;20052;-82
2022/05/08 03:28:44;;;;;;;1.90;0.50;;;;;;;9.43;99.42;100883.69;4953942;29;20054;-84
2022/05/08 03:31:12;;;;;;;1.65;0.10;;;;;;;9.44;98.61;100881.16;4953594;29;20231;-85
2022/05/08 03:33:43;;;;;;;1.80;0.32;;;;;;;9.40;94.08;100868.09;4957113;28;20059;-85
2022/05/08 03:36:11;;;;;;;3.03;0.35;;;;;;;9.36;94.30;100876.53;4959007;29;20058;-87
2022/05/08 03:38:44;;;;;;;0.35;0.20;;;;;;;9.30;94.58;100866.88;4968746;28;20138;-82
2022/05/08 03:41:15;;;;;;;3.85;0.30;;;;;;;9.27;94.13;100861.56;4973423;28;20065;-85
2022/05/08 03:43:44;;;;;;;2.80;0.30;;;;;;;9.21;92.00;100859.66;4974860;28;20055;-86
2022/05/08 03:46:13;;;;;;;0.52;0.20;;;;;;;9.17;93.30;100855.22;4972392;28;20544;-87
2022/05/08 03:48:43;;;;;;;1.50;0.38;;;;;;;9.16;93.76;100852.56;4972803;28;20057;-86
2022/05/08 03:51:12;;;;;;;0.70;0.28;;;;;;;9.14;94.31;100849.94;4972093;28;20054;-85
2022/05/08 03:53:40;;;;;;;1.20;0.32;;;;;;;9.09;96.23;100851.44;4971406;28;20484;-80
2022/05/08 03:56:09;;;;;;;1.42;0.30;;;;;;;9.05;93.67;100852.19;4970804;28;20079;-80
2022/05/08 03:58:38;;;;;;;0.77;0.25;;;;;;;9.02;92.65;100858.13;4970983;28;20051;-81
2022/05/08 04:01:06;;;;;;;0.52;0.20;;;;;;;8.97;90.83;100845.84;4971152;28;20086;-80
2022/05/08 04:03:35;;;;;;;0.80;0.20;;;;;;;8.95;92.36;100848.34;4970913;28;20062;-76
2022/05/08 04:06:06;;;;;;;2.45;0.20;;;;;;;8.95;92.39;100862.97;4970956;28;20125;-73
2022/05/08 04:08:42;;;;;;;0.20;0.10;;;;;;;8.93;89.72;100862.03;4971143;28;20057;-75
2022/05/08 04:11:10;;;;;;;0.20;0.10;;;;;;;8.89;88.94;100858.47;4970868;28;20411;-76
2022/05/08 04:13:39;;;;;;;7.72;0.40;;;;;;;8.76;92.11;100846.78;4970522;28;20054;-77
2022/05/08 04:16:21;;;;;;;0.43;0.40;;;;;;;8.81;93.03;100859.88;4971405;28;20086;-76
2022/05/08 04:18:51;;;;;;;1.08;0.40;;;;;;;8.80;92.73;100864.16;4970541;28;20086;-77
2022/05/08 04:21:21;;;;;;;1.05;0.30;;;;;;;8.73;91.82;100869.03;4970740;28;20075;-76
2022/05/08 04:26:35;;;;;;;0.90;0.32;;;;;;;8.64;92.95;100866.09;4970188;28;20082;-78
2022/05/08 04:29:04;;;;;;;0.28;0.20;;;;;;;8.65;94.08;100867.84;4969743;28;20058;-75
2022/05/08 04:31:32;;;;;;;0.22;0.10;;;;;;;8.59;94.58;100869.38;4971818;28;20130;-77
2022/05/08 04:34:02;;;;;;;0.20;0.15;;;;;;;8.52;94.95;100867.38;4966921;28;20055;-80
2022/05/08 04:36:32;;;;;;;0.17;0.10;;;;;;;8.51;93.75;100857.84;4952057;29;20049;-77
2022/05/08 04:39:00;;;;;;;0.20;0.20;;;;;;;8.45;91.67;100855.03;4951586;29;20055;-78
2022/05/08 04:41:29;;;;;;;0.10;0.10;;;;;;;8.44;92.71;100855.88;4951417;29;20061;-77
2022/05/08 04:44:00;;;;;;;1.75;0.30;;;;;;;8.45;94.49;100865.34;4951046;29;20547;-78
2022/05/08 04:46:29;;;;;;;0.47;0.10;;;;;;;8.38;93.58;100853.00;4951524;29;20047;-77
2022/05/08 04:48:58;;;;;;;1.67;0.20;;;;;;;8.35;93.71;100851.19;4951577;29;20054;-75
2022/05/08 04:51:26;;;;;;;1.15;0.43;;;;;;;8.27;94.04;100855.16;4951631;28;20421;-80
2022/05/08 04:53:56;;;;;;;0.10;0.10;;;;;;;8.26;95.17;100852.50;4950910;29;20429;-76
2022/05/08 04:56:24;;;;;;;0.28;0.17;;;;;;;8.25;95.75;100846.50;4951566;29;20102;-82
2022/05/08 04:58:53;;;;;;;0.63;0.20;;;;;;;8.24;96.42;100839.56;4950209;29;20079;-82
2022/05/08 05:01:21;;;;;;;3.20;0.32;;;;;;;8.26;95.60;100839.63;4951206;29;20134;-82
2022/05/08 05:03:50;;;;;;;0.40;0.30;;;;;;;8.26;96.61;100837.06;4950735;29;20477;-78
2022/05/08 05:06:19;;;;;;;4.28;0.20;;;;;;;8.22;96.08;100841.19;4951032;29;20051;-80
2022/05/08 05:08:47;;;;;;;0.08;0.08;;;;;;;8.18;97.09;100827.31;4950489;29;20526;-80
2022/05/08 05:11:17;;;;;;;3.00;0.30;;;;;;;8.19;97.80;100829.06;4950788;29;20457;-83
2022/05/08 05:13:54;;;;;;;2.85;0.40;;;;;;;8.22;99.00;100819.69;4950662;29;20086;-78
2022/05/08 05:16:23;;;;;;;0.20;0.10;;;;;;;8.20;100.00;100817.06;4950682;29;20051;-80
2022/05/08 05:18:51;;;;;;;7.13;0.55;;;;;;;8.17;100.00;100817.81;4952361;29;20047;-87
2022/05/08 05:21:19;;;;;;;1.55;0.32;;;;;;;8.14;100.00;100822.84;4953093;29;20110;-85
2022/05/08 05:23:48;;;;;;;2.88;0.20;;;;;;;7.99;100.00;100801.59;4951718;29;20106;-86
2022/05/08 05:26:18;;;;;;;0.57;0.13;;;;;;;8.09;100.00;100819.22;4951864;29;20059;-87
2022/05/08 05:28:47;;;;;;;0.30;0.28;;;;;;;8.12;100.00;100818.44;4951662;29;20043;-82
2022/05/08 05:31:15;;;;;;;0.98;0.38;;;;;;;8.01;100.00;100799.09;4954476;29;20102;-81
2022/05/08 05:33:50;;;;;;;4.07;0.20;;;;;;;8.03;100.00;100812.94;4958082;28;20058;-79
2022/05/08 05:36:24;;;;;;;0.10;0.10;;;;;;;7.92;99.06;100815.06;4970105;28;20059;-81
2022/05/08 05:38:53;;;;;;;1.63;0.40;;;;;;;7.84;99.40;100809.59;4966480;28;20051;-81
2022/05/08 05:41:23;;;;;;;0.20;0.20;;;;;;;7.79;100.00;100805.06;4969501;28;20094;-82
2022/05/08 05:43:51;;;;;;;2.22;0.25;;;;;;;7.75;99.50;100802.38;4969653;28;20091;-81
2022/05/08 05:49:05;;;;;;;0.25;0.20;;;;;;;7.76;97.93;100804.16;4969826;28;21006;-81
2022/05/08 05:51:33;;;;;;;0.32;0.30;;;;;;;7.72;97.21;100797.09;4969568;28;20552;-83
2022/05/08 05:54:01;;;;;;;1.98;0.13;;;;;;;7.74;99.32;100800.63;4970064;28;20122;-83
2022/05/08 05:56:31;;;;;;;0.10;0.10;;;;;;;7.73;97.42;100798.84;4969839;28;20082;-83
2022/05/08 05:59:00;;;;;;;3.45;0.28;;;;;;;7.72;99.12;100803.94;4970838;28;20087;-85
2022/05/08 06:01:28;;;;;;;2.80;0.57;;;;;;;7.71;99.61;100803.03;4970029;28;20385;-82
2022/05/08 06:03:57;;;;;;;0.55;0.40;;;;;;;7.68;98.90;100802.94;4971374;28;20575;-85
2022/05/08 06:06:25;;;;;;;0.55;0.20;;;;;;;7.68;99.23;100797.78;4974206;28;20058;-81
2022/05/08 06:08:53;;;;;;;0.25;0.20;;;;;;;7.59;99.56;100789.66;4973159;28;20106;-80
2022/05/08 06:11:22;;;;;;;0.30;0.10;;;;;;;7.48;100.00;100791.78;4973152;28;20140;-81
2022/05/08 06:13:52;;;;;;;1.75;0.30;;;;;;;7.55;100.00;100788.66;4973369;28;20101;-84
2022/05/08 06:16:20;;;;;;;1.38;0.22;;;;;;;7.53;99.08;100791.97;4973357;28;20097;-83
2022/05/08 06:18:49;;;;;;;0.35;0.32;;;;;;;7.45;98.52;100788.22;4973691;28;20114;-80
2022/05/08 06:21:17;;;;;;;1.20;0.25;;;;;;;7.43;99.53;100782.13;4972752;28;20134;-86
2022/05/08 06:23:46;;;;;;;0.30;0.20;;;;;;;7.42;99.82;100786.41;4974016;28;20504;-81
2022/05/08 06:26:16;;;;;;;0.08;0.05;;;;;;;7.40;100.00;100787.13;4973739;28;20082;-78
2022/05/08 06:28:45;;;;;;;0.25;0.25;;;;;;;7.41;100.00;100778.59;4975542;28;20082;-80
2022/05/08 06:31:17;;;;;;;0.10;0.10;;;;;;;7.43;100.00;100774.41;4975540;28;20510;-85
2022/05/08 06:33:46;;;;;;;1.27;0.22;;;;;;;7.41;100.00;100784.63;4977203;28;20051;-86
2022/05/08 06:36:15;;;;;;;0.60;0.43;;;;;;;7.43;100.00;100774.41;4977947;28;20054;-83
2022/05/08 06:38:43;;;;;;;1.08;0.35;;;;;;;7.43;100.00;100771.81;4974850;28;20050;-82
2022/05/08 06:41:12;;;;;;;0.63;0.38;;;;;;;7.41;100.00;100765.72;4968984;28;20078;-79
2022/05/08 06:43:41;;;;;;;4.15;0.38;;;;;;;7.40;100.00;100759.69;4972723;28;20576;-85
2022/05/08 06:46:10;;;;;;;1.63;0.20;;;;;;;7.39;100.00;100760.50;4974606;28;20047;-83
2022/05/08 06:48:40;;;;;;;0.30;0.30;;;;;;;7.39;100.00;100751.91;4972901;28;20151;-81
2022/05/08 06:51:09;;;;;;;1.35;0.43;;;;;;;7.39;100.00;100749.34;4972897;28;20496;-81
2022/05/08 06:53:37;;;;;;;1.10;0.40;;;;;;;7.33;100.00;100747.41;4972701;28;20179;-80
2022/05/08 06:56:06;;;;;;;0.88;0.30;;;;;;;7.34;100.00;100739.72;4972521;28;20560;-78
2022/05/08 07:01:34;;;;;;;0.20;0.13;;;;;;;7.36;100.00;100741.50;4972130;28;20054;-80
2022/05/08 07:01:34;;;;;;;1.13;0.55;;;;;;;7.38;100.00;100742.44;4972366;28;20441;-80
2022/05/08 07:04:05;;;;;;;0.20;0.10;;;;;;;7.32;100.00;100743.91;4971724;28;20062;-80
2022/05/08 07:06:33;;;;;;;1.52;0.57;;;;;;;7.33;100.00;100744.81;4972530;28;20043;-80
2022/05/08 07:09:02;;;;;;;0.47;0.20;;;;;;;7.31;100.00;100734.44;4972307;28;20114;-81
2022/05/08 07:11:31;;;;;;;2.58;0.17;;;;;;;7.32;100.00;100735.31;4972206;28;20050;-79
2022/05/08 07:14:00;;;;;;;0.77;0.45;;;;;;;7.28;100.00;100731.75;4971553;28;20050;-81
2022/05/08 07:16:28;;;;;;;0.30;0.30;;;;;;;7.26;100.00;100725.66;4971914;28;20644;-77
2022/05/08 07:18:57;;;;;;;0.73;0.40;;;;;;;7.25;100.00;100731.59;4971877;28;20050;-79
2022/05/08 07:21:27;;;;;;;0.43;0.20;;;;;;;7.26;100.00;100732.47;4971820;28;20054;-78
2022/05/08 07:23:56;;;;;;;1.10;0.40;;;;;;;7.25;100.00;100731.59;4971739;28;20082;-79
2022/05/08 07:26:24;;;;;;;0.68;0.25;;;;;;;7.26;100.00;100723.09;4972693;28;20555;-78
2022/05/08 07:28:53;;;;;;;0.30;0.20;;;;;;;7.28;100.00;100721.47;4975349;28;20109;-78
2022/05/08 07:31:21;;;;;;;0.98;0.20;;;;;;;7.29;100.00;100720.63;4972340;28;20055;-79
2022/05/08 07:36:12;;;;;;;1.25;0.22;;;;;;;7.29;100.00;100718.06;4972547;28;20678;-79
2022/05/08 07:36:39;;;;;;;0.45;0.43;;;;;;;7.31;100.00;100721.59;4972265;28;20053;-80
2022/05/08 07:39:08;;;;;;;2.53;0.25;;;;;;;7.30;100.00;100719.81;4963461;28;20671;-79
2022/05/08 07:41:36;;;;;;;0.20;0.20;;;;;;;7.26;100.00;100717.94;4962732;28;20146;-78
2022/05/08 07:44:05;;;;;;;0.68;0.38;;;;;;;7.23;100.00;100712.66;4972558;28;20055;-80
2022/05/08 07:46:33;;;;;;;1.00;0.40;;;;;;;7.20;100.00;100715.09;4972688;28;20042;-80
2022/05/08 07:49:02;;;;;;;0.95;0.30;;;;;;;7.15;100.00;100703.75;4973293;28;20102;-79
2022/05/08 07:51:30;;;;;;;0.50;0.30;;;;;;;7.11;100.00;100701.84;4972368;28;20111;-80
2022/05/08 07:54:00;;;;;;;0.10;0.10;;;;;;;7.07;100.00;100700.81;4971746;28;20133;-79
2022/05/08 07:56:29;;;;;;;1.15;0.50;;;;;;;7.05;100.00;100694.72;4971456;28;20560;-78
2022/05/08 07:58:57;;;;;;;0.38;0.20;;;;;;;7.06;100.00;100695.63;4971971;28;20066;-78
2022/05/08 08:01:26;;;;;;;3.28;0.45;;;;;;;7.05;100.00;100688.72;4971199;28;20086;-81
2022/05/08 08:03:54;;;;;;;1.08;0.30;;;;;;;7.03;100.00;100682.63;4971723;28;20141;-80
2022/05/08 08:06:23;;;;;;;1.77;0.30;;;;;;;7.02;100.00;100680.88;4970319;28;20047;-79
2022/05/08 08:08:51;;;;;;;4.53;0.60;;;;;;;7.01;100.00;100668.81;4971876;28;20397;-79
2022/05/08 08:11:22;;;;;;;1.85;0.30;;;;;;;7.00;100.00;100667.94;4971380;28;20417;-78
2022/05/08 08:13:50;;;;;;;0.75;0.30;;;;;;;6.99;100.00;100670.47;4970802;28;20503;-79
2022/05/08 08:16:19;;;;;;;2.47;0.30;;;;;;;6.88;100.00;100650.28;4970525;28;20039;-79
2022/05/08 08:18:48;;;;;;;1.23;0.40;;;;;;;6.99;100.00;100665.31;4971475;28;20102;-81
2022/05/08 08:21:18;;;;;;;0.75;0.20;;;;;;;7.00;100.00;100664.50;4970792;28;20101;-79
2022/05/08 08:23:46;;;;;;;0.30;0.30;;;;;;;7.01;100.00;100659.41;4970870;28;20098;-80
2022/05/08 08:26:15;;;;;;;1.02;0.47;;;;;;;7.00;100.00;100656.78;4974143;28;20074;-78
2022/05/08 08:28:45;;;;;;;3.67;0.43;;;;;;;6.99;100.00;100652.44;4971183;28;20055;-78
2022/05/08 08:31:14;;;;;;;1.02;0.30;;;;;;;6.98;100.00;100656.69;4971199;28;20507;-80
2022/05/08 08:33:44;;;;;;;1.60;0.60;;;;;;;6.96;100.00;100653.19;4971419;28;20096;-79
2022/05/08 08:36:13;;;;;;;1.17;0.50;;;;;;;6.99;100.00;100650.75;4970292;28;20053;-79
2022/05/08 08:38:42;;;;;;;0.95;0.32;;;;;;;6.99;100.00;100649.88;4966746;28;20078;-79
2022/05/08 08:41:12;;;;;;;2.03;0.35;;;;;;;7.01;100.00;100653.38;4959584;28;20578;-80
2022/05/08 08:49:23;;;;;;;0.73;0.30;;;;;;;7.07;100.00;100627.91;4970704;28;20083;-80
2022/05/08 08:51:52;;;;;;;0.85;0.22;;;;;;;7.09;100.00;100623.72;4970401;28;20047;-78
2022/05/08 08:54:21;;;;;;;0.63;0.38;;;;;;;7.08;100.00;100621.97;4970853;28;20097;-79
2022/05/08 08:56:50;;;;;;;1.27;0.43;;;;;;;7.07;100.00;100622.75;4970496;28;20050;-81
2022/05/08 08:59:21;;;;;;;0.47;0.40;;;;;;;7.10;100.00;100610.91;4970346;28;20492;-80
2022/05/08 09:01:51;;;;;;;1.95;0.73;;;;;;;7.15;100.00;100613.69;4970715;28;20058;-79
2022/05/08 09:04:20;;;;;;;2.00;0.40;;;;;;;7.20;100.00;100611.28;4970036;28;20134;-80
2022/05/08 09:06:49;;;;;;;2.50;0.80;;;;;;;7.20;100.00;100606.16;4970581;28;20063;-80
2022/05/08 09:09:26;;;;;;;2.97;0.52;;;;;;;7.21;100.00;100598.47;4969988;28;20459;-80
2022/05/08 09:11:56;;;;;;;1.25;0.68;;;;;;;7.19;100.00;100594.94;4970215;28;20491;-80
2022/05/08 09:14:32;;;;;;;1.27;0.50;;;;;;;7.20;100.00;100593.28;4969695;28;20527;-81
2022/05/08 09:17:04;;;;;;;1.95;0.55;;;;;;;7.19;100.00;100582.09;4970037;28;20042;-81
2022/05/08 09:19:36;;;;;;;1.33;0.73;;;;;;;7.19;100.00;100586.34;4969809;28;20082;-81
2022/05/08 09:22:05;;;;;;;0.55;0.55;;;;;;;7.14;100.00;100579.31;4969816;28;20131;-81
2022/05/08 09:24:34;;;;;;;4.13;0.60;;;;;;;7.10;100.00;100581.72;4971910;28;20113;-79
2022/05/08 09:27:16;;;;;;;4.45;0.68;;;;;;;7.06;100.00;100578.16;4971487;28;20051;-79
2022/05/08 09:29:45;;;;;;;2.30;0.50;;;;;;;7.02;100.00;100572.81;4970618;28;20047;-81
2022/05/08 09:32:36;;;;;;;1.17;0.40;;;;;;;7.01;100.00;100571.03;4969302;28;20051;-80
2022/05/08 09:35:04;;;;;;;1.40;0.40;;;;;;;6.99;100.00;100559.84;4983251;28;20061;-80
2022/05/08 09:37:33;;;;;;;2.85;0.60;;;;;;;6.96;100.00;100562.28;4981706;28;20102;-82
2022/05/08 09:40:18;;;;;;;2.85;0.63;;;;;;;6.96;100.00;100552.84;4974844;28;20070;-81
2022/05/08 09:42:47;;;;;;;1.08;0.77;;;;;;;6.90;100.00;100545.78;4994077;28;20312;-82
2022/05/08 09:45:15;;;;;;;3.70;0.77;;;;;;;6.88;100.00;100549.09;4995287;28;20174;-82
2022/05/08 09:47:48;;;;;;;1.00;0.40;;;;;;;6.85;100.00;100547.28;4994716;28;20110;-82
2022/05/08 09:50:18;;;;;;;2.00;0.63;;;;;;;6.87;100.00;100537.94;4993239;28;20050;-81
2022/05/08 09:52:47;;;;;;;1.00;0.57;;;;;;;6.89;100.00;100538.91;4993520;28;20055;-82
2022/05/08 09:55:16;;;;;;;0.60;0.38;;;;;;;6.90;100.00;100543.22;4992590;28;20046;-82
2022/05/08 09:57:44;;;;;;;0.88;0.65;;;;;;;6.93;100.00;100530.47;4993544;28;20050;-82
2022/05/08 10:00:14;;;;;;;0.82;0.55;;;;;;;6.96;100.00;100532.28;4992737;28;20077;-83
2022/05/08 10:02:45;;;;;;;0.75;0.30;;;;;;;6.99;100.00;100517.00;4992839;28;20050;-81
2022/05/08 10:05:22;;;;;;;1.85;0.52;;;;;;;7.03;100.00;100523.13;4992116;28;20054;-83
2022/05/08 10:07:51;;;;;;;1.08;0.40;;;;;;;7.02;100.00;100517.09;4992667;28;20089;-82
2022/05/08 10:15:50;;;;;;;1.58;0.30;;;;;;;7.03;100.00;100505.09;4992820;28;20192;-82
2022/05/08 10:18:28;;;;;;;1.45;0.40;;;;;;;7.03;100.00;100499.97;4992695;28;20042;-82
2022/05/08 10:21:07;;;;;;;1.00;0.43;;;;;;;6.97;100.00;100486.88;4992292;28;20129;-81
2022/05/08 10:23:36;;;;;;;1.75;0.45;;;;;;;7.03;100.00;100495.72;4995844;28;20046;-81
2022/05/08 10:26:20;;;;;;;1.58;0.45;;;;;;;6.99;100.00;100496.41;4993361;28;20117;-81
2022/05/08 10:29:13;;;;;;;1.35;0.40;;;;;;;6.96;100.00;100485.97;4990616;28;20050;-82
2022/05/08 10:31:48;;;;;;;1.00;0.52;;;;;;;6.96;100.00;100485.09;4992374;28;20046;-80
2022/05/08 10:34:31;;;;;;;2.67;0.52;;;;;;;6.93;100.00;100483.28;4992865;28;20066;-80
2022/05/08 10:37:28;;;;;;;2.42;0.90;;;;;;;6.92;100.00;100479.84;4992458;28;20059;-81
2022/05/08 10:39:57;;;;;;;3.10;0.93;;;;;;;6.92;100.00;100485.00;4979940;28;20105;-80
2022/05/08 10:42:54;;;;;;;2.75;0.60;;;;;;;6.93;100.00;100476.44;4992062;28;20046;-80
2022/05/08 10:45:42;;;;;;;1.35;0.50;;;;;;;6.95;100.00;100468.81;4931963;28;20134;-80
2022/05/08 10:48:13;;;;;;;3.30;0.52;;;;;;;6.96;100.00;100470.53;4972344;28;20158;-81
2022/05/08 10:50:44;;;;;;;2.17;0.50;;;;;;;6.96;100.00;100469.66;4971617;28;20061;-80
2022/05/08 10:53:26;;;;;;;2.47;0.43;;;;;;;6.92;100.00;100472.13;4972672;28;20051;-81
2022/05/08 10:56:01;;;;;;;1.15;0.50;;;;;;;6.92;100.00;100469.56;4972663;28;20125;-81
2022/05/08 10:58:29;;;;;;;0.77;0.50;;;;;;;6.95;100.00;100473.06;4972511;28;20055;-80
2022/05/08 11:01:03;;;;;;;0.80;0.50;;;;;;;6.96;100.00;100467.97;4971971;28;20043;-80
2022/05/08 11:03:33;;;;;;;1.35;0.52;;;;;;;7.00;100.00;100463.84;4972348;28;20069;-80
2022/05/08 11:06:03;;;;;;;0.75;0.55;;;;;;;7.03;100.00;100467.41;4964580;28;20051;-80
2022/05/08 11:08:33;;;;;;;2.42;0.50;;;;;;;7.02;100.00;100464.78;4971706;28;20050;-80
2022/05/08 11:11:04;;;;;;;1.20;0.45;;;;;;;7.02;100.00;100457.06;4971508;28;20488;-80
2022/05/08 11:13:44;;;;;;;0.77;0.57;;;;;;;7.04;100.00;100456.28;4971802;28;20125;-81
2022/05/08 11:16:13;;;;;;;2.17;0.40;;;;;;;7.08;100.00;100454.75;4971700;28;20075;-80
2022/05/08 11:18:42;;;;;;;2.65;0.47;;;;;;;7.09;100.00;100451.34;4972327;28;20106;-82
2022/05/08 11:21:12;;;;;;;2.50;0.70;;;;;;;7.13;100.00;100448.06;4972494;28;20061;-81
2022/05/08 11:23:44;;;;;;;0.55;0.40;;;;;;;7.15;100.00;100436.13;4975158;28;20106;-81
2022/05/08 11:26:14;;;;;;;1.00;0.50;;;;;;;7.20;100.00;100434.59;4973285;28;20481;-81
2022/05/08 11:28:49;;;;;;;1.38;0.55;;;;;;;7.25;100.00;100427.94;4971922;28;20059;-81
2022/05/08 11:31:19;;;;;;;1.05;0.43;;;;;;;7.26;100.00;100414.25;4971757;28;20106;-81
2022/05/08 11:36:46;;;;;;;0.93;0.40;;;;;;;7.26;100.00;100400.50;4892713;29;20063;-81
2022/05/08 11:39:16;;;;;;;1.25;0.60;;;;;;;7.27;100.00;100405.72;4933658;29;20106;-81
2022/05/08 11:41:46;;;;;;;2.15;0.70;;;;;;;7.27;100.00;100397.13;4965853;28;20061;-81
2022/05/08 11:44:23;;;;;;;1.38;0.40;;;;;;;7.27;100.00;100400.56;4972130;28;20043;-80
2022/05/08 11:46:54;;;;;;;0.98;0.43;;;;;;;7.25;100.00;100386.75;4964517;28;20059;-81
2022/05/08 11:49:23;;;;;;;3.40;0.50;;;;;;;7.24;100.00;100385.03;4952331;29;20047;-80
2022/05/08 11:51:54;;;;;;;2.63;0.75;;;;;;;7.25;100.00;100378.16;4952168;29;20086;-81
2022/05/08 11:54:30;;;;;;;2.35;0.50;;;;;;;7.25;100.00;100371.31;4952128;29;20049;-81
2022/05/08 11:57:17;;;;;;;5.65;0.65;;;;;;;7.29;100.00;100362.91;4952141;29;20052;-80
2022/05/08 11:59:47;;;;;;;2.80;0.88;;;;;;;7.31;100.00;100360.38;4951899;29;20524;-80
2022/05/08 12:02:16;;;;;;;1.65;0.40;;;;;;;7.33;100.00;100356.19;4951595;28;20105;-80
2022/05/08 12:04:55;;;;;;;5.50;0.60;;;;;;;7.36;100.00;100347.69;4951821;29;20071;-80
2022/05/08 12:07:26;;;;;;;0.60;0.50;;;;;;;7.33;100.00;100344.19;4951621;29;20106;-79